Portada
METAR-TAF:

METAR-TAF

Aeropuertos :

Qurayyat, Arabia Saudita

latitud: 31-24N, longitud: 037-16E, altitud: 509 m

Observación

El informe se hizo hace 55 minutos, a las 23:00 UTC
Viento 8 kt del norte-noroeste
Temperatura 23°C
Humedad 50%
Presión 1011 hPa
Visibilidad 10 km o más
sin nubes por debajo de 1500 m y sin presencia de cumulonimbus.

METAR: OEGT 212300Z 33008KT CAVOK 23/12 Q1011 NOSIG

Hora: 02:55 (23:55 UTC)

Pronóstico

El informe se hizo hace 55 minutos, a las 23:00 UTC
Pronóstico válido del 22 a las 00 UTC al 23 a las 06 UTC
Viento 5 kt del norte-noroeste
Visibilidad 10 km o más
sin nubes por debajo de 1500 m y sin presencia de cumulonimbus.
Evolucionando progresivamente
del 22 a las 06 UTC al 22 a las 08 UTC
Viento 15 kt del oeste-noroeste
Evolucionando progresivamente
del 22 a las 21 UTC al 22 a las 23 UTC
Viento 5 kt del norte-noroeste

TAF: OEGT 212300Z 2200/2306 33005KT CAVOK BECMG 2206/2208 30015KT BECMG 2221/2223 34005KT

Observaciones y pronósticos meteorológicos de más de 4000 aeropuertos (mensajes METAR y TAF).

Los puntos amarillos y rojos representan las estaciones disponibles.

Ponga el ratón en el punto deseado para ver el nombre de la estación.

Haga clic para ver las observaciones y los pronósticos meteorológicos.

Para cambiar el mapa : haga clic en los botones verdes con una cruz de color negro para hacer un zoom, en el botón verde con un guión para alejar o en las flechas verdes para mapas adyacentes.


METAR-TAF: